createdAt,value
2023-03-15T00:09:09.052Z,89.7
2023-03-15T00:24:30.013Z,90.5
2023-03-15T00:39:50.027Z,91
2023-03-15T00:55:10.014Z,92
2023-03-15T01:10:30.986Z,94.7
2023-03-15T01:25:51.959Z,93.8
2023-03-15T01:41:12.937Z,95.7
2023-03-15T01:56:33.892Z,93.1
2023-03-15T02:11:54.862Z,91.5
2023-03-15T02:27:15.853Z,93.1
2023-03-15T02:42:36.819Z,91.5
2023-03-15T02:57:57.808Z,92
2023-03-15T03:13:18.776Z,93.3
2023-03-15T03:28:39.737Z,93.5
2023-03-15T03:44:00.729Z,92.7
2023-03-15T03:59:21.685Z,92
2023-03-15T04:14:41.669Z,92.4
2023-03-15T04:30:02.659Z,91.1
2023-03-15T04:45:23.628Z,90.1
2023-03-15T05:00:44.541Z,89.6
2023-03-15T05:16:05.489Z,89.6
2023-03-15T05:31:26.421Z,89.3
2023-03-15T05:46:47.351Z,86
2023-03-15T06:02:08.437Z,83.7
2023-03-15T06:17:28.359Z,83
2023-03-15T06:32:49.302Z,81.1
2023-03-15T06:48:10.238Z,90.3
2023-03-15T07:03:31.160Z,97
2023-03-15T07:18:52.083Z,97.1
2023-03-15T07:34:13.008Z,97.1
2023-03-15T07:49:33.941Z,99
2023-03-15T08:04:54.880Z,100
2023-03-15T08:20:15.796Z,99.2
2023-03-15T08:35:36.723Z,96.7
2023-03-15T08:50:57.661Z,89.7
2023-03-15T09:06:18.588Z,85.4
2023-03-15T09:21:39.495Z,87.3
2023-03-15T09:22:59.576Z,90.9
2023-03-15T09:24:20.641Z,85.4
2023-03-15T09:25:41.724Z,84
2023-03-15T09:27:02.776Z,85.3
2023-03-15T09:28:23.849Z,84.8
2023-03-15T09:29:44.913Z,83
2023-03-15T09:31:05.979Z,81.1
2023-03-15T09:32:26.074Z,81.8
2023-03-15T09:33:46.158Z,82.9
2023-03-15T09:35:06.259Z,83.9
2023-03-15T09:36:26.336Z,83.5
2023-03-15T09:37:47.398Z,80.7
2023-03-15T09:39:07.499Z,78.4
2023-03-15T09:40:27.575Z,78.8
2023-03-15T09:41:48.648Z,79.8
2023-03-15T09:43:09.706Z,79.6
2023-03-15T09:44:30.793Z,79.5
2023-03-15T09:45:51.838Z,80.5
2023-03-15T09:47:12.910Z,81.1
2023-03-15T09:48:33.962Z,79.6
2023-03-15T09:49:55.030Z,78
2023-03-15T09:51:16.105Z,77.7
2023-03-15T09:52:37.183Z,77
2023-03-15T09:53:58.253Z,79.3
2023-03-15T09:55:19.315Z,79.9
2023-03-15T09:56:40.378Z,79.2
2023-03-15T09:58:00.468Z,77.9
2023-03-15T09:59:21.546Z,79.4
2023-03-15T10:00:42.611Z,77.9
2023-03-15T10:02:03.674Z,78.8
2023-03-15T10:03:24.739Z,77.1
2023-03-15T10:04:45.807Z,75.5
2023-03-15T10:06:06.868Z,75.4
2023-03-15T10:07:26.970Z,74.3
2023-03-15T10:08:47.054Z,75.1
2023-03-15T10:10:08.118Z,74.8
2023-03-15T10:11:29.185Z,74.8
2023-03-15T10:12:50.258Z,75.1
2023-03-15T10:14:11.293Z,73.5
2023-03-15T10:15:32.390Z,73.2
2023-03-15T10:16:53.453Z,75.9
2023-03-15T10:18:14.517Z,74.3
2023-03-15T10:19:35.565Z,77.4
2023-03-15T10:20:56.643Z,77
2023-03-15T10:22:17.724Z,76.6
2023-03-15T10:23:38.781Z,74.4
2023-03-15T10:24:59.850Z,75.6
2023-03-15T10:26:19.945Z,77.2
2023-03-15T10:27:41.010Z,74.8
2023-03-15T10:29:02.057Z,75
2023-03-15T10:30:23.137Z,75.4
2023-03-15T10:31:44.203Z,75.1
2023-03-15T10:33:05.270Z,73.7
2023-03-15T10:34:26.318Z,73.1
2023-03-15T10:35:46.417Z,73.8
2023-03-15T10:37:06.521Z,72.7
2023-03-15T10:38:26.620Z,70.7
2023-03-15T10:39:46.685Z,73.9
2023-03-15T10:41:07.751Z,71.8
2023-03-15T10:42:28.843Z,71.5
2023-03-15T10:43:49.880Z,70.6
2023-03-15T10:45:10.970Z,69.9
2023-03-15T10:46:32.040Z,71.2
2023-03-15T10:47:53.098Z,74.1
2023-03-15T10:49:14.161Z,70.2
2023-03-15T10:50:35.230Z,71.7
2023-03-15T10:51:56.294Z,73.7
2023-03-15T10:53:17.365Z,71.8
2023-03-15T10:54:38.434Z,69
2023-03-15T10:55:59.480Z,67
2023-03-15T10:57:19.573Z,65.1
2023-03-15T10:58:40.653Z,64
2023-03-15T11:00:01.715Z,64.9
2023-03-15T11:01:22.776Z,65.3
2023-03-15T11:02:43.857Z,66.9
2023-03-15T11:04:04.910Z,68
2023-03-15T11:05:25.961Z,68
2023-03-15T11:06:46.080Z,67.5
2023-03-15T11:08:06.156Z,67.1
2023-03-15T11:09:26.252Z,70.4
2023-03-15T11:10:46.349Z,70.2
2023-03-15T11:12:07.406Z,72
2023-03-15T11:13:28.476Z,71.4
2023-03-15T11:14:49.545Z,71.5
2023-03-15T11:16:10.612Z,72.4
2023-03-15T11:17:31.673Z,72.5
2023-03-15T11:18:52.740Z,70.9
2023-03-15T11:20:13.816Z,74.3
2023-03-15T11:21:34.886Z,73.7
2023-03-15T11:22:55.940Z,71.2
2023-03-15T11:24:17.003Z,70.3
2023-03-15T11:25:38.076Z,71.9
2023-03-15T11:26:59.128Z,72.2
2023-03-15T11:28:19.223Z,70
2023-03-15T11:29:40.296Z,70.4
2023-03-15T11:31:01.351Z,70.3
2023-03-15T11:32:22.438Z,73.2
2023-03-15T11:33:43.505Z,74.3
2023-03-15T11:35:04.556Z,69.8
2023-03-15T11:36:25.623Z,72.1
2023-03-15T11:37:45.731Z,71
2023-03-15T11:39:05.812Z,72
2023-03-15T11:40:26.866Z,71.5
2023-03-15T11:41:47.939Z,70.4
2023-03-15T11:43:09.011Z,72
2023-03-15T11:44:30.073Z,76.5
2023-03-15T11:45:51.148Z,80.3
2023-03-15T11:47:12.200Z,81.1
2023-03-15T11:48:33.270Z,79.7
2023-03-15T11:49:54.342Z,81.5
2023-03-15T11:52:36.484Z,79.5
2023-03-15T11:53:57.547Z,78.6
2023-03-15T11:55:18.614Z,79.1
2023-03-15T11:56:39.808Z,79.3
2023-03-15T11:58:00.866Z,76.9
2023-03-15T11:59:21.939Z,75.8
2023-03-15T12:00:43.000Z,75.9
2023-03-15T12:02:04.076Z,70.8
2023-03-15T12:03:25.142Z,73.9
2023-03-15T12:04:46.197Z,69.4
2023-03-15T12:06:07.264Z,69.1
2023-03-15T12:07:27.356Z,69.1
2023-03-15T12:08:47.440Z,67.5
2023-03-15T12:10:07.537Z,66.3
2023-03-15T12:11:27.623Z,63.6
2023-03-15T12:12:47.706Z,65.3
2023-03-15T12:15:28.858Z,64.4
2023-03-15T12:16:48.957Z,62.9
2023-03-15T12:18:09.033Z,59.3
2023-03-15T12:19:29.124Z,62.2
2023-03-15T12:20:50.319Z,64.8
2023-03-15T12:22:11.384Z,62.5
2023-03-15T12:23:32.452Z,61.5
2023-03-15T12:24:53.515Z,62.5
2023-03-15T12:26:14.581Z,63.2
2023-03-15T12:27:35.632Z,64.2
2023-03-15T12:28:56.696Z,63
2023-03-15T12:30:17.794Z,63.3
2023-03-15T12:31:38.853Z,60.9
2023-03-15T12:32:59.924Z,58.4
2023-03-15T12:34:21.007Z,57.8
2023-03-15T12:35:42.064Z,56.7
2023-03-15T12:37:03.133Z,55.5
2023-03-15T12:38:23.220Z,54.2
2023-03-15T12:39:44.282Z,53
2023-03-15T12:41:05.352Z,53.3
2023-03-15T12:42:26.418Z,54.3
2023-03-15T12:43:47.503Z,56.1
2023-03-15T12:45:08.000Z,56.6
2023-03-15T12:46:29.624Z,52.7
2023-03-15T12:49:10.770Z,51.4
2023-03-15T12:50:30.861Z,53.8
2023-03-15T12:51:50.975Z,52.4
2023-03-15T12:53:11.040Z,50.4
2023-03-15T12:54:31.144Z,53.8
2023-03-15T12:55:52.215Z,50.5
2023-03-15T12:57:13.283Z,54.1
2023-03-15T12:58:34.352Z,60.2
2023-03-15T12:59:55.430Z,62.1
2023-03-15T13:01:16.491Z,62.4
2023-03-15T13:02:37.551Z,61.9
2023-03-15T13:03:58.631Z,62.8
2023-03-15T13:05:19.684Z,63.3
2023-03-15T13:06:40.769Z,61.6
2023-03-15T13:08:01.828Z,62.3
2023-03-15T13:09:22.903Z,61.6
2023-03-15T13:10:43.962Z,61.6
2023-03-15T13:12:04.021Z,65.2
2023-03-15T13:13:25.100Z,62.9
2023-03-15T13:14:46.159Z,63.1
2023-03-15T13:16:07.226Z,58.5
2023-03-15T13:17:28.316Z,57.8
2023-03-15T13:18:49.367Z,55.8
2023-03-15T13:20:10.429Z,54.3
2023-03-15T13:21:30.532Z,58.3
2023-03-15T13:22:50.611Z,58.2
2023-03-15T13:24:10.714Z,60.2
2023-03-15T13:25:30.793Z,59.4
2023-03-15T13:26:51.851Z,58.1
2023-03-15T13:28:12.916Z,56.7
2023-03-15T13:29:34.000Z,57.1
2023-03-15T13:30:55.033Z,54.9
2023-03-15T13:32:16.121Z,57.3
2023-03-15T13:33:37.205Z,54.6
2023-03-15T13:34:58.254Z,52.2
2023-03-15T13:36:19.315Z,51.1
2023-03-15T13:37:40.388Z,53.1
2023-03-15T13:39:01.461Z,55.3
2023-03-15T13:40:22.513Z,49.7
2023-03-15T13:41:43.580Z,51.5
2023-03-15T13:43:03.670Z,49.6
2023-03-15T13:44:24.745Z,50.2
2023-03-15T13:45:45.808Z,48.2
2023-03-15T13:47:06.864Z,50.4
2023-03-15T13:48:27.944Z,50.3
2023-03-15T13:49:48.987Z,47.7
2023-03-15T13:51:10.066Z,51.5
2023-03-15T13:52:30.162Z,49.8
2023-03-15T13:53:50.256Z,51.5
2023-03-15T13:55:11.315Z,49.9
2023-03-15T13:56:32.358Z,48.5
2023-03-15T13:57:53.458Z,48.9
2023-03-15T13:59:14.516Z,48.8
2023-03-15T14:00:35.590Z,52.9
2023-03-15T14:01:56.648Z,48.9
2023-03-15T14:03:17.724Z,49.3
2023-03-15T14:04:38.798Z,52.9
2023-03-15T14:05:59.849Z,49.2
2023-03-15T14:07:20.917Z,51.8
2023-03-15T14:08:41.982Z,50.8
2023-03-15T14:10:03.051Z,52.5
2023-03-15T14:11:23.136Z,54.1
2023-03-15T14:12:44.213Z,51.8
2023-03-15T14:14:05.268Z,51.5
2023-03-15T14:15:26.332Z,53.8
2023-03-15T14:16:47.410Z,52.8
2023-03-15T14:18:08.488Z,51.6
2023-03-15T14:19:29.553Z,51.2
2023-03-15T14:20:49.649Z,52
2023-03-15T14:22:09.701Z,51
2023-03-15T14:23:30.782Z,52.4
2023-03-15T14:24:51.859Z,50.1
2023-03-15T14:26:12.920Z,51.2
2023-03-15T14:27:33.987Z,52.2
2023-03-15T14:28:55.049Z,51.2
2023-03-15T14:30:16.129Z,51.8
2023-03-15T14:31:37.187Z,52.7
2023-03-15T14:32:58.253Z,54.3
2023-03-15T14:34:19.328Z,61.1
2023-03-15T14:35:40.389Z,64.4
2023-03-15T14:37:01.453Z,65.3
2023-03-15T14:38:22.522Z,67.8
2023-03-15T14:39:42.612Z,72
2023-03-15T14:41:03.669Z,70.5
2023-03-15T14:42:24.712Z,70.4
2023-03-15T14:43:45.813Z,72.4
2023-03-15T14:45:06.877Z,71.4
2023-03-15T14:46:27.952Z,68.3
2023-03-15T14:47:49.005Z,66.3
2023-03-15T14:49:09.111Z,64.1
2023-03-15T14:50:29.189Z,64.1
2023-03-15T14:51:50.418Z,62.5
2023-03-15T14:53:10.501Z,64.5
2023-03-15T14:54:30.576Z,63.7
2023-03-15T14:55:50.674Z,64.8
2023-03-15T14:57:11.741Z,65.2
2023-03-15T14:58:31.838Z,61.6
2023-03-15T14:59:51.914Z,59.9
2023-03-15T15:01:12.987Z,58.9
2023-03-15T15:02:34.067Z,62.2
2023-03-15T15:03:55.095Z,58.9
2023-03-15T15:05:16.199Z,57.7
2023-03-15T15:06:37.228Z,56.2
2023-03-15T15:07:58.321Z,59
2023-03-15T15:09:19.391Z,57.4
2023-03-15T15:10:40.464Z,54.3
2023-03-15T15:12:01.512Z,57.5
2023-03-15T15:13:22.593Z,57
2023-03-15T15:14:43.653Z,58.9
2023-03-15T15:16:04.722Z,60.2
2023-03-15T15:17:24.824Z,56.5
2023-03-15T15:18:45.888Z,52.1
2023-03-15T15:20:06.944Z,55.7
2023-03-15T15:21:28.019Z,51.5
2023-03-15T15:22:49.083Z,52
2023-03-15T15:24:10.129Z,50.4
2023-03-15T15:25:31.224Z,51.6
2023-03-15T15:26:52.428Z,54.2
2023-03-15T15:28:12.521Z,52.7
2023-03-15T15:29:32.603Z,55.1
2023-03-15T15:30:52.687Z,52.5
2023-03-15T15:32:13.765Z,52.7
2023-03-15T15:33:34.833Z,54.1
2023-03-15T15:34:55.880Z,54.8
2023-03-15T15:36:16.940Z,55
2023-03-15T15:37:38.054Z,59.6
2023-03-15T15:38:59.117Z,64.9
2023-03-15T15:40:20.185Z,66.3
2023-03-15T15:41:41.251Z,68.2
2023-03-15T15:43:02.324Z,67.9
2023-03-15T15:44:23.379Z,66.8
2023-03-15T15:45:44.442Z,68.6
2023-03-15T15:47:05.515Z,68.6
2023-03-15T15:48:25.595Z,71.7
2023-03-15T15:49:46.660Z,71.9
2023-03-15T15:51:07.726Z,74.2
2023-03-15T15:52:28.785Z,74.9
2023-03-15T15:53:49.859Z,72.8
2023-03-15T15:55:10.920Z,73.8
2023-03-15T15:56:31.996Z,74.6
2023-03-15T15:57:52.084Z,74.5
2023-03-15T15:59:12.160Z,75.1
2023-03-15T16:00:32.253Z,72
2023-03-15T16:01:52.343Z,72.3
2023-03-15T16:03:13.410Z,72.7
2023-03-15T16:04:34.482Z,71
2023-03-15T16:05:55.533Z,71
2023-03-15T16:07:16.608Z,71.3
2023-03-15T16:08:37.686Z,72
2023-03-15T16:09:58.749Z,71.8
2023-03-15T16:11:19.815Z,73.8
2023-03-15T16:12:40.881Z,74.3
2023-03-15T16:14:01.938Z,72.7
2023-03-15T16:15:23.020Z,74.6
2023-03-15T16:16:44.076Z,75.5
2023-03-15T16:18:05.153Z,75.5
2023-03-15T16:19:25.229Z,78.3
2023-03-15T16:20:46.303Z,75.6
2023-03-15T16:22:07.353Z,76.4
2023-03-15T16:23:28.400Z,77.5
2023-03-15T16:24:49.490Z,78.6
2023-03-15T16:26:10.574Z,78.2
2023-03-15T16:27:31.642Z,79.1
2023-03-15T16:28:51.731Z,79.5
2023-03-15T16:30:11.820Z,79.8
2023-03-15T16:31:31.921Z,79.1
2023-03-15T16:32:52.004Z,80.5
2023-03-15T16:34:13.062Z,81.3
2023-03-15T16:35:34.124Z,81.4
2023-03-15T16:36:55.207Z,81.5
2023-03-15T16:38:16.265Z,79.8
2023-03-15T16:39:37.331Z,80.7
2023-03-15T16:40:58.396Z,79.2
2023-03-15T16:42:19.474Z,80.3
2023-03-15T16:43:40.531Z,80.3
2023-03-15T16:45:01.596Z,80.7
2023-03-15T16:46:22.665Z,81
2023-03-15T16:47:43.731Z,80.3
2023-03-15T16:49:04.812Z,81
2023-03-15T16:50:24.892Z,82.6
2023-03-15T16:51:45.951Z,81.9
2023-03-15T16:53:07.014Z,82.2
2023-03-15T16:54:28.077Z,82.9
2023-03-15T16:55:49.147Z,83.5
2023-03-15T16:57:10.216Z,81.8
2023-03-15T16:58:31.283Z,82.6
2023-03-15T16:59:51.381Z,84.5
2023-03-15T17:01:11.474Z,84.6
2023-03-15T17:02:32.525Z,85.4
2023-03-15T17:03:52.637Z,85.9
2023-03-15T17:05:12.703Z,84.8
2023-03-15T17:06:33.763Z,86.1
2023-03-15T17:07:54.843Z,87.6
2023-03-15T17:09:15.910Z,90.6
2023-03-15T17:10:36.963Z,91.3
2023-03-15T17:11:58.034Z,90.6
2023-03-15T17:13:19.100Z,90.2
2023-03-15T17:14:40.173Z,91.1
2023-03-15T17:16:01.233Z,91.8
2023-03-15T17:17:22.000Z,92.3
2023-03-15T17:18:43.372Z,92.2
2023-03-15T17:20:04.451Z,92
2023-03-15T17:21:25.497Z,92.8
2023-03-15T17:22:45.590Z,93.6
2023-03-15T17:24:06.656Z,94.1
2023-03-15T17:25:27.731Z,94.6
2023-03-15T17:26:47.819Z,95.6
2023-03-15T17:28:08.884Z,95.6
2023-03-15T17:29:29.953Z,95.8
2023-03-15T17:30:51.012Z,96.1
2023-03-15T17:32:11.099Z,96.3
2023-03-15T17:33:31.195Z,96.4
2023-03-15T17:34:52.249Z,96.8
2023-03-15T17:36:13.473Z,97
2023-03-15T17:37:33.560Z,97.3
2023-03-15T17:38:54.617Z,97.5
2023-03-15T17:40:15.682Z,97.1
2023-03-15T17:41:36.750Z,96.6
2023-03-15T17:42:57.870Z,95.5
2023-03-15T17:44:18.968Z,93.4
2023-03-15T17:45:40.077Z,93.2
2023-03-15T17:47:01.187Z,92.5
2023-03-15T17:48:22.306Z,91.8
2023-03-15T17:49:43.386Z,91
2023-03-15T17:51:04.532Z,91.1
2023-03-15T17:52:25.636Z,89.7
2023-03-15T17:53:46.755Z,89
2023-03-15T17:55:06.877Z,87.7
2023-03-15T17:56:27.989Z,86.7
2023-03-15T17:57:49.097Z,84.9
2023-03-15T17:59:10.218Z,85.9
2023-03-15T18:00:31.313Z,84.7
2023-03-15T18:01:52.422Z,85.5
2023-03-15T18:03:13.530Z,83.5
2023-03-15T18:04:33.688Z,83.7
2023-03-15T18:05:53.801Z,84.7
2023-03-15T18:07:14.923Z,84
2023-03-15T18:08:35.053Z,84.3
2023-03-15T18:09:55.185Z,84.5
2023-03-15T18:11:16.295Z,83.8
2023-03-15T18:12:37.403Z,83.9
2023-03-15T18:13:58.504Z,84.5
2023-03-15T18:15:19.612Z,83.2
2023-03-15T18:16:40.733Z,84
2023-03-15T18:18:01.836Z,83.3
2023-03-15T18:19:22.937Z,83.6
2023-03-15T18:20:44.055Z,85
2023-03-15T18:22:05.169Z,85.6
2023-03-15T18:23:26.276Z,85.8
2023-03-15T18:24:47.378Z,85.1
2023-03-15T18:26:08.483Z,85.4
2023-03-15T18:27:28.610Z,85.2
2023-03-15T18:28:49.721Z,85.2
2023-03-15T18:30:10.816Z,84.5
2023-03-15T18:31:31.948Z,85.3
2023-03-15T18:32:53.070Z,85.3
2023-03-15T18:34:14.169Z,84.6
2023-03-15T18:35:35.288Z,84.6
2023-03-15T18:36:55.428Z,83.9
2023-03-15T18:38:16.637Z,84.9
2023-03-15T18:39:36.791Z,85.1
2023-03-15T18:40:56.882Z,86.3
2023-03-15T18:42:18.006Z,87.1
2023-03-15T18:43:39.122Z,86.3
2023-03-15T18:45:00.229Z,86.3
2023-03-15T18:46:21.346Z,86.8
2023-03-15T18:47:42.455Z,86.3
2023-03-15T18:49:03.551Z,86.5
2023-03-15T18:50:24.659Z,86.9
2023-03-15T18:51:45.771Z,86.9
2023-03-15T18:53:06.894Z,87.5
2023-03-15T18:54:28.008Z,87.3
2023-03-15T18:55:49.099Z,87.2
2023-03-15T18:58:31.313Z,87.4
2023-03-15T18:59:51.437Z,87.7
2023-03-15T19:01:12.541Z,88
2023-03-15T19:02:33.666Z,87.7
2023-03-15T19:03:54.770Z,88.5
2023-03-15T19:05:15.877Z,89.3
2023-03-15T19:06:36.976Z,89.7
2023-03-15T19:07:58.080Z,90.2
2023-03-15T19:09:18.226Z,90.9
2023-03-15T19:10:38.354Z,92
2023-03-15T19:11:59.462Z,92.8
2023-03-15T19:13:20.569Z,93.5
2023-03-15T19:14:41.682Z,94.1
2023-03-15T19:16:02.773Z,94.7
2023-03-15T19:17:23.896Z,95.4
2023-03-15T19:18:44.995Z,96.3
2023-03-15T19:20:06.113Z,97
2023-03-15T19:21:27.219Z,97.2
2023-03-15T19:22:48.325Z,96.9
2023-03-15T19:24:09.424Z,96.7
2023-03-15T19:25:30.548Z,96.7
2023-03-15T19:26:51.649Z,96.8
2023-03-15T19:28:11.776Z,97.2
2023-03-15T19:29:32.897Z,97.5
2023-03-15T19:30:54.004Z,98.2
2023-03-15T19:32:15.107Z,98.3
2023-03-15T19:33:36.207Z,98.1
2023-03-15T19:34:57.330Z,98
2023-03-15T19:36:18.440Z,97.8
2023-03-15T19:37:38.562Z,98
2023-03-15T19:38:58.685Z,98.5
2023-03-15T19:40:18.818Z,98.3
2023-03-15T19:41:38.954Z,98.5
2023-03-15T19:43:00.064Z,98.6
2023-03-15T19:44:21.175Z,98.7
2023-03-15T19:45:42.275Z,98.6
2023-03-15T19:47:03.394Z,98.5
2023-03-15T19:48:24.501Z,98.7
2023-03-15T19:49:45.595Z,98.8
2023-03-15T19:51:06.710Z,99
2023-03-15T19:52:27.824Z,99.3
2023-03-15T19:53:48.918Z,99.6
2023-03-15T19:55:10.025Z,99.9
2023-03-15T19:56:31.140Z,100
2023-03-15T19:57:52.240Z,100
2023-03-15T19:59:12.367Z,100
2023-03-15T20:00:33.472Z,100
2023-03-15T20:03:15.689Z,100
2023-03-15T20:04:36.798Z,100
2023-03-15T20:05:57.910Z,100
2023-03-15T20:07:19.027Z,100
2023-03-15T20:08:40.106Z,100
2023-03-15T20:10:00.268Z,99.9
2023-03-15T20:11:20.386Z,99.7
2023-03-15T20:12:40.525Z,99.6
2023-03-15T20:14:00.653Z,99.7
2023-03-15T20:15:20.778Z,99.7
2023-03-15T20:16:40.916Z,99.5
2023-03-15T20:18:02.014Z,99.4
2023-03-15T20:19:23.125Z,99.4
2023-03-15T20:20:44.227Z,99.4
2023-03-15T20:22:05.337Z,99.7
2023-03-15T20:23:26.458Z,100
2023-03-15T20:24:47.564Z,100
2023-03-15T20:26:08.675Z,100
2023-03-15T20:27:29.771Z,100
2023-03-15T20:28:50.889Z,100
2023-03-15T20:44:11.850Z,100
2023-03-15T20:59:32.849Z,100
2023-03-15T21:14:53.805Z,100
2023-03-15T21:30:13.806Z,100
2023-03-15T21:45:34.784Z,100
2023-03-15T22:00:55.755Z,100
2023-03-15T22:16:16.735Z,100
2023-03-15T22:31:37.718Z,100
2023-03-15T22:46:58.685Z,100
2023-03-15T23:02:19.673Z,100
2023-03-15T23:17:39.671Z,100
2023-03-15T23:32:59.652Z,100
2023-03-15T23:48:20.629Z,100
